Time;durP1;ratioP1;P1;durP2;ratioP2;P2;SDS_P1;SDS_P2;PMS_P1;PMS_P2;Temp;Humidity;BMP_temperature;BMP_pressure;BME280_temperature;BME280_humidity;BME280_pressure;Samples;Min_cycle;Max_cycle;Signal;HPM_P1;HPM_P2
2022/03/29 00:00:38;;;;;;;29.98;11.20;;;12.10;99.90;;;12.32;72.50;100927.19;5183257;28;20046;-73
2022/03/29 00:03:10;;;;;;;30.20;11.40;;;12.10;99.90;;;12.32;72.45;100925.44;5183589;28;20046;-73
2022/03/29 00:05:42;;;;;;;29.67;11.23;;;12.10;99.90;;;12.31;72.52;100928.03;5199887;28;20058;-72
2022/03/29 00:08:14;;;;;;;27.20;11.18;;;12.10;99.90;;;12.29;72.73;100925.38;5185588;28;20048;-73
2022/03/29 00:10:47;;;;;;;30.75;11.65;;;12.10;99.90;;;12.28;72.57;100925.34;5183293;28;20409;-73
2022/03/29 00:13:19;;;;;;;29.85;11.80;;;12.10;99.90;;;12.25;72.77;100928.72;5192013;28;20052;-72
2022/03/29 00:15:51;;;;;;;27.27;12.40;;;12.10;99.90;;;12.23;72.95;100928.69;5202541;28;20045;-73
2022/03/29 00:18:23;;;;;;;32.13;12.18;;;12.00;99.90;;;12.22;73.02;100924.31;5196656;28;20045;-73
2022/03/29 00:20:55;;;;;;;29.15;11.35;;;12.00;99.90;;;12.21;73.15;100922.53;5187934;28;20045;-73
2022/03/29 00:23:27;;;;;;;28.02;11.27;;;12.00;99.90;;;12.20;73.06;100920.75;5187869;28;20052;-72
2022/03/29 00:26:01;;;;;;;30.55;11.50;;;12.00;99.90;;;12.20;73.33;100920.75;5205013;28;20080;-72
2022/03/29 00:28:33;;;;;;;30.50;12.20;;;12.00;99.90;;;12.19;73.31;100924.22;5208232;28;20079;-73
2022/03/29 00:31:05;;;;;;;26.40;11.23;;;12.00;99.90;;;12.18;73.56;100918.91;5208367;28;20090;-73
2022/03/29 00:33:37;;;;;;;27.38;11.52;;;12.00;99.90;;;12.16;73.72;100913.66;5208498;28;20045;-73
2022/03/29 00:36:09;;;;;;;30.63;11.45;;;12.00;99.90;;;12.15;73.58;100911.88;5208445;28;20049;-73
2022/03/29 00:38:41;;;;;;;28.98;11.63;;;12.00;99.90;;;12.13;73.85;100905.75;5207957;28;20072;-73
2022/03/29 00:41:14;;;;;;;29.10;11.73;;;11.90;99.90;;;12.11;73.94;100904.78;5208355;28;20401;-73
2022/03/29 00:43:46;;;;;;;29.92;11.35;;;11.90;99.90;;;12.11;73.78;100904.78;5208623;28;20136;-73
2022/03/29 00:46:20;;;;;;;30.63;11.57;;;11.90;99.90;;;12.11;74.15;100896.94;5208286;28;20057;-72
2022/03/29 00:48:52;;;;;;;28.25;10.68;;;11.90;99.90;;;12.12;74.12;100895.22;5207712;28;20136;-73
2022/03/29 00:51:24;;;;;;;30.75;12.75;;;11.90;99.90;;;12.12;74.02;100897.84;5208368;28;20050;-73
2022/03/29 00:53:56;;;;;;;27.35;10.88;;;11.90;99.90;;;12.10;74.26;100892.56;5207870;28;20059;-73
2022/03/29 00:56:29;;;;;;;32.67;10.70;;;11.90;99.90;;;12.07;74.16;100887.25;5207929;28;20049;-72
2022/03/29 00:59:02;;;;;;;29.60;10.88;;;11.90;99.90;;;12.07;74.31;100887.25;5207627;28;20423;-72
2022/03/29 01:01:34;;;;;;;28.95;11.30;;;11.90;99.90;;;12.06;74.07;100895.94;5207776;28;20053;-73
2022/03/29 01:04:07;;;;;;;30.80;11.60;;;11.90;99.90;;;12.05;74.27;100888.91;5207840;28;20046;-72
2022/03/29 01:06:39;;;;;;;31.27;11.48;;;11.90;99.90;;;12.04;74.18;100883.66;5207759;28;20045;-73
2022/03/29 01:09:12;;;;;;;27.65;10.80;;;11.80;99.90;;;12.03;74.23;100889.72;5207630;28;20398;-73
2022/03/29 01:11:45;;;;;;;26.05;10.82;;;11.80;99.90;;;12.03;74.43;100874.94;5207692;28;20060;-72
2022/03/29 01:14:18;;;;;;;26.52;11.80;;;11.80;99.90;;;12.02;74.49;100877.50;5207871;28;20383;-73
2022/03/29 01:19:42;;;;;;;29.92;11.32;;;11.80;99.90;;;12.00;74.75;100864.41;5207291;28;20473;-72
2022/03/29 01:22:16;;;;;;;25.23;10.73;;;11.80;99.90;;;11.99;74.84;100867.84;5207960;28;20071;-73
2022/03/29 01:24:50;;;;;;;29.15;11.05;;;11.80;99.90;;;11.96;74.64;100862.53;5206347;28;20054;-73
2022/03/29 01:27:24;;;;;;;29.17;10.65;;;11.80;99.90;;;11.95;74.76;100860.75;5206731;28;20057;-72
2022/03/29 01:29:59;;;;;;;27.75;10.32;;;11.80;99.90;;;11.93;74.83;100862.41;5206852;28;20049;-72
2022/03/29 01:32:35;;;;;;;28.13;11.05;;;11.80;99.90;;;11.90;74.70;100855.38;5207009;28;20104;-73
2022/03/29 01:35:08;;;;;;;28.35;10.52;;;11.70;99.90;;;11.89;74.99;100852.75;5207370;28;20057;-73
2022/03/29 01:37:42;;;;;;;29.52;11.23;;;11.70;99.90;;;11.86;75.24;100844.78;5206869;28;20055;-72
2022/03/29 01:40:17;;;;;;;27.00;10.82;;;11.70;99.90;;;11.86;75.17;100855.25;5206781;28;20056;-73
2022/03/29 01:42:51;;;;;;;26.77;11.48;;;11.70;99.90;;;11.86;75.17;100847.41;5206947;28;20050;-72
2022/03/29 01:45:28;;;;;;;29.25;10.73;;;11.70;99.90;;;11.84;75.47;100849.09;5207245;28;20405;-72
2022/03/29 01:48:00;;;;;;;27.02;10.15;;;11.70;99.90;;;11.82;75.42;100846.44;5206391;28;20045;-73
2022/03/29 01:50:32;;;;;;;27.27;10.50;;;11.60;99.90;;;11.79;75.21;100846.31;5207028;28;20478;-73
2022/03/29 01:53:05;;;;;;;28.70;10.32;;;11.60;99.90;;;11.78;75.52;100839.31;5206910;28;20045;-73
2022/03/29 01:55:38;;;;;;;31.40;10.55;;;11.60;99.90;;;11.78;75.68;100833.19;5207004;28;20055;-73
2022/03/29 01:58:10;;;;;;;27.23;10.43;;;11.60;99.90;;;11.79;75.79;100827.13;5205977;28;20490;-72
2022/03/29 02:00:43;;;;;;;26.25;10.23;;;11.60;99.90;;;11.79;75.82;100834.97;5206641;28;20049;-73
2022/03/29 02:03:15;;;;;;;25.48;10.25;;;11.60;99.90;;;11.78;75.56;100830.59;5206389;28;20119;-73
2022/03/29 02:05:46;;;;;;;23.95;10.18;;;11.60;99.90;;;11.77;75.58;100828.81;5206873;28;20049;-73
2022/03/29 02:08:20;;;;;;;29.95;11.45;;;11.60;99.90;;;11.77;75.60;100819.25;5206223;28;20060;-73
2022/03/29 02:10:52;;;;;;;29.25;10.45;;;11.60;99.90;;;11.81;75.46;100823.78;5201372;28;20045;-72
2022/03/29 02:13:24;;;;;;;31.05;10.43;;;11.60;99.90;;;11.83;74.96;100829.94;5206310;28;20045;-72
2022/03/29 02:15:56;;;;;;;28.65;10.60;;;11.60;99.90;;;11.83;74.78;100821.22;5206030;28;20501;-72
2022/03/29 02:18:28;;;;;;;26.83;10.35;;;11.60;99.90;;;11.85;74.64;100820.41;5205994;28;20410;-72
2022/03/29 02:21:00;;;;;;;29.88;11.02;;;11.60;99.90;;;11.84;74.01;100809.91;5206276;28;20049;-72
2022/03/29 02:23:33;;;;;;;26.80;10.13;;;11.60;99.90;;;11.85;74.09;100814.28;5206469;28;20088;-72
2022/03/29 02:26:05;;;;;;;25.92;10.07;;;11.60;99.90;;;11.86;73.93;100808.22;5206725;28;20056;-72
2022/03/29 02:28:37;;;;;;;28.77;10.35;;;11.60;99.90;;;11.85;73.90;100806.47;5206061;28;20498;-73
2022/03/29 02:31:10;;;;;;;28.98;10.70;;;11.70;99.90;;;11.84;73.95;100804.69;5206276;28;20406;-73
2022/03/29 02:33:42;;;;;;;29.08;10.57;;;11.60;99.90;;;11.84;74.26;100805.56;5205969;28;20056;-72
2022/03/29 02:36:16;;;;;;;27.95;10.30;;;11.60;99.90;;;11.84;74.19;100796.84;5205515;28;20045;-71
2022/03/29 02:38:49;;;;;;;29.02;10.30;;;11.60;99.90;;;11.82;74.37;100795.94;5205308;28;20140;-72
2022/03/29 02:41:21;;;;;;;20.85;9.35;;;11.60;99.90;;;11.80;74.46;100789.72;5205844;28;20055;-72
2022/03/29 02:43:53;;;;;;;26.25;10.48;;;11.60;99.90;;;11.79;74.31;100790.56;5205978;28;20045;-73
2022/03/29 02:46:25;;;;;;;27.30;10.63;;;11.60;99.90;;;11.78;74.63;100788.81;5205699;28;20053;-71
2022/03/29 02:48:57;;;;;;;26.65;9.90;;;11.60;99.90;;;11.77;74.69;100793.16;5205325;28;20045;-72
2022/03/29 02:51:29;;;;;;;27.83;9.77;;;11.60;99.90;;;11.76;74.54;100787.88;5205937;28;20482;-72
2022/03/29 02:54:02;;;;;;;26.45;10.45;;;11.60;99.90;;;11.74;74.53;100782.63;5205738;28;20045;-71
2022/03/29 02:56:34;;;;;;;30.02;10.95;;;11.60;99.90;;;11.73;74.53;100779.94;5205561;28;20053;-72
2022/03/29 02:59:06;;;;;;;27.02;11.38;;;11.50;99.90;;;11.69;74.42;100774.63;5205259;28;20049;-72
2022/03/29 03:01:38;;;;;;;24.55;10.30;;;11.50;99.90;;;11.68;74.62;100774.59;5205254;28;20080;-73
2022/03/29 03:04:12;;;;;;;25.42;10.20;;;11.50;99.90;;;11.66;74.71;100769.31;5205396;28;20053;-72
2022/03/29 03:06:44;;;;;;;23.35;9.25;;;11.50;99.90;;;11.63;74.85;100764.00;5205503;28;20421;-72
2022/03/29 03:09:18;;;;;;;29.30;11.60;;;11.50;99.90;;;11.60;74.66;100758.69;5205173;28;20045;-73
2022/03/29 03:11:50;;;;;;;28.50;10.30;;;11.50;99.90;;;11.59;74.84;100762.13;5205082;28;20061;-73
2022/03/29 03:14:22;;;;;;;27.08;10.77;;;11.40;99.90;;;11.57;74.80;100763.81;5205675;28;20425;-73
2022/03/29 03:16:54;;;;;;;30.23;10.75;;;11.40;99.90;;;11.56;74.65;100753.34;5205397;28;20112;-73
2022/03/29 03:19:26;;;;;;;26.02;10.88;;;11.40;99.90;;;11.54;74.78;100753.31;5204988;28;20498;-72
2022/03/29 03:21:58;;;;;;;28.95;10.55;;;11.40;99.90;;;11.56;74.85;100755.97;5205133;28;20417;-72
2022/03/29 03:24:31;;;;;;;24.88;10.73;;;11.40;99.90;;;11.54;74.85;100753.31;5205019;28;20057;-73
2022/03/29 03:27:04;;;;;;;30.33;10.50;;;11.40;99.90;;;11.52;74.91;100747.13;5205019;28;20482;-72
2022/03/29 03:29:36;;;;;;;31.33;11.70;;;11.40;99.90;;;11.51;74.99;100747.97;5205069;28;20180;-73
2022/03/29 03:32:09;;;;;;;29.95;11.23;;;11.30;99.90;;;11.50;74.54;100742.72;5205208;28;20383;-72
2022/03/29 03:34:42;;;;;;;26.35;11.80;;;11.30;99.90;;;11.47;74.74;100746.09;5205274;28;20045;-72
2022/03/29 03:37:14;;;;;;;32.55;10.63;;;11.30;99.90;;;11.44;74.61;100734.69;5204217;28;20065;-73
2022/03/29 03:39:48;;;;;;;28.48;10.60;;;11.30;99.90;;;11.40;74.74;100736.31;5204916;28;20056;-72
2022/03/29 03:42:20;;;;;;;26.15;10.50;;;11.30;99.90;;;11.37;75.35;100731.03;5205151;28;20124;-72
2022/03/29 03:44:52;;;;;;;28.77;10.57;;;11.20;99.90;;;11.36;75.31;100731.84;5204924;28;20045;-72
2022/03/29 03:47:24;;;;;;;26.90;9.93;;;11.20;99.90;;;11.33;75.53;100724.81;5203401;28;20051;-72
2022/03/29 03:49:56;;;;;;;27.23;10.45;;;11.20;99.90;;;11.32;75.79;100720.44;5204654;28;20100;-72
2022/03/29 03:52:28;;;;;;;29.58;10.93;;;11.20;99.90;;;11.31;76.06;100733.44;5204826;28;20046;-73
2022/03/29 03:55:02;;;;;;;28.48;10.65;;;11.10;99.90;;;11.30;76.06;100737.78;5205030;28;20056;-72
2022/03/29 03:57:34;;;;;;;25.55;10.15;;;11.10;99.90;;;11.29;76.06;100727.28;5203868;28;20049;-73
2022/03/29 04:00:08;;;;;;;31.45;10.77;;;11.10;99.90;;;11.27;76.21;100728.94;5204696;28;20049;-72
2022/03/29 04:02:40;;;;;;;26.60;10.80;;;11.10;99.90;;;11.24;76.19;100718.44;5204807;28;20576;-73
2022/03/29 04:05:13;;;;;;;24.50;10.23;;;11.10;99.90;;;11.20;76.24;100724.38;5204751;28;20045;-72
2022/03/29 04:07:45;;;;;;;29.42;10.80;;;11.10;99.90;;;11.14;76.47;100715.53;5204072;28;20065;-73
2022/03/29 04:10:19;;;;;;;30.90;10.80;;;11.00;99.90;;;11.10;76.63;100703.25;5204579;28;20049;-72
2022/03/29 04:12:51;;;;;;;30.23;10.95;;;11.00;99.90;;;11.07;76.85;100703.13;5204618;28;20057;-72
2022/03/29 04:15:23;;;;;;;27.33;11.45;;;10.90;99.90;;;11.06;76.96;100706.56;5204622;28;20057;-72
2022/03/29 04:17:56;;;;;;;29.05;10.57;;;10.90;99.90;;;11.07;76.90;100707.47;5204241;28;20048;-72
2022/03/29 04:20:29;;;;;;;30.55;10.82;;;10.90;99.90;;;11.05;76.86;100699.59;5204442;28;20566;-73
2022/03/29 04:23:01;;;;;;;25.25;10.63;;;10.90;99.90;;;11.04;76.93;100692.59;5204191;28;20064;-72
2022/03/29 04:25:34;;;;;;;31.23;12.00;;;10.90;99.90;;;11.04;76.71;100692.59;5204443;28;20045;-74
2022/03/29 04:28:07;;;;;;;28.65;10.60;;;10.90;99.90;;;11.07;76.23;100686.59;5203841;28;20049;-73
2022/03/29 04:30:39;;;;;;;26.02;10.52;;;10.90;99.90;;;11.10;75.96;100692.81;5204541;28;20483;-72
2022/03/29 04:33:11;;;;;;;28.30;10.60;;;10.90;99.90;;;11.08;75.68;100686.66;5204356;28;20144;-73
2022/03/29 04:35:43;;;;;;;30.35;10.43;;;10.90;99.90;;;11.04;75.80;100679.56;5204611;28;20049;-73
2022/03/29 04:38:15;;;;;;;29.10;10.73;;;10.90;99.90;;;11.00;75.91;100689.84;5203900;28;20071;-72
2022/03/29 04:40:48;;;;;;;27.27;10.00;;;10.90;99.90;;;10.97;76.23;100690.66;5204032;28;20053;-72
2022/03/29 04:43:20;;;;;;;27.65;10.63;;;10.80;99.90;;;10.94;76.60;100685.31;5204485;28;20045;-72
2022/03/29 04:45:52;;;;;;;33.53;11.40;;;10.80;99.90;;;10.91;76.63;100681.75;5203930;28;20049;-71
2022/03/29 04:48:24;;;;;;;30.98;11.40;;;10.80;99.90;;;10.89;76.81;100676.50;5203761;28;20054;-73
2022/03/29 04:50:57;;;;;;;28.33;11.38;;;10.80;99.90;;;10.89;76.86;100676.50;5203855;28;20057;-72
2022/03/29 04:53:29;;;;;;;25.05;10.68;;;10.80;99.90;;;10.86;76.60;100676.38;5204209;28;20482;-73
2022/03/29 04:56:03;;;;;;;27.63;10.65;;;10.70;99.90;;;10.84;76.65;100667.63;5228994;23;20049;-89
2022/03/29 04:58:35;;;;;;;23.83;10.60;;;10.70;99.90;;;10.82;76.89;100669.28;5253126;28;20044;-89
2022/03/29 05:01:07;;;;;;;31.70;10.65;;;10.70;99.90;;;10.80;77.27;100661.41;5246459;22;20221;-72
2022/03/29 05:03:39;;;;;;;27.58;10.73;;;10.70;99.90;;;10.78;77.29;100660.50;5228213;28;20059;-72
2022/03/29 05:06:11;;;;;;;29.08;10.80;;;10.70;99.90;;;10.79;77.31;100662.25;5228263;28;20055;-73
2022/03/29 05:08:43;;;;;;;26.45;10.52;;;10.70;99.90;;;10.81;77.28;100657.09;5228261;28;20041;-72
2022/03/29 05:11:16;;;;;;;29.92;11.07;;;10.70;99.90;;;10.81;77.11;100659.69;5228184;28;20390;-71
2022/03/29 05:13:48;;;;;;;32.78;10.88;;;10.70;99.90;;;10.83;76.95;100663.25;5228243;28;20413;-72
2022/03/29 05:16:20;;;;;;;32.05;12.13;;;10.70;99.90;;;10.81;76.63;100662.31;5227889;28;20055;-72
2022/03/29 05:18:53;;;;;;;30.17;11.45;;;10.70;99.90;;;10.80;76.46;100660.53;5227842;28;20090;-72
2022/03/29 05:21:25;;;;;;;30.60;11.30;;;10.60;99.90;;;10.79;76.53;100657.06;5227736;28;20481;-72
2022/03/29 05:23:57;;;;;;;33.25;11.57;;;10.70;99.90;;;10.78;76.73;100657.00;5228285;28;20449;-72
2022/03/29 05:26:30;;;;;;;29.45;12.00;;;10.70;99.90;;;10.77;76.68;100652.63;5228069;28;20124;-71
2022/03/29 05:29:03;;;;;;;35.05;13.32;;;10.60;99.90;;;10.73;76.57;100650.75;5227980;28;20392;-72
2022/03/29 05:31:35;;;;;;;31.70;12.10;;;10.60;99.90;;;10.71;76.67;100649.81;5229556;28;20075;-73
2022/03/29 05:34:07;;;;;;;38.00;13.07;;;10.60;99.90;;;10.70;76.85;100655.88;5248106;28;20070;-72
2022/03/29 05:36:43;;;;;;;32.80;13.45;;;10.60;99.90;;;10.70;76.69;100650.66;5248814;28;20098;-72
2022/03/29 05:39:16;;;;;;;33.63;13.40;;;10.60;99.90;;;10.71;76.49;100652.44;5248148;28;20378;-73
2022/03/29 05:41:50;;;;;;;34.45;13.38;;;10.60;99.90;;;10.75;76.43;100646.47;5248161;28;20102;-72
2022/03/29 05:44:22;;;;;;;35.90;13.27;;;10.60;99.90;;;10.77;76.30;100652.63;5248259;28;20059;-73
2022/03/29 05:49:43;;;;;;;35.38;13.30;;;10.70;99.90;;;10.79;76.43;100656.16;5248005;28;20052;-72
2022/03/29 05:52:15;;;;;;;36.90;12.95;;;10.70;99.90;;;10.82;76.19;100656.25;5248152;28;20048;-72
2022/03/29 05:54:47;;;;;;;33.92;13.57;;;10.70;99.90;;;10.83;76.19;100655.44;5247932;28;20049;-72
2022/03/29 05:57:20;;;;;;;30.85;12.38;;;10.70;99.90;;;10.84;76.34;100652.00;5245248;28;20421;-70
2022/03/29 05:59:52;;;;;;;33.30;13.23;;;10.70;99.90;;;10.85;76.24;100648.53;5226960;28;20126;-69
2022/03/29 06:02:25;;;;;;;33.45;13.13;;;10.70;99.90;;;10.88;76.49;100651.22;5227033;28;20055;-69
2022/03/29 06:04:57;;;;;;;35.25;12.48;;;10.70;99.90;;;10.93;76.42;100657.47;5227155;28;20067;-69
2022/03/29 06:07:29;;;;;;;35.65;13.38;;;10.70;99.90;;;10.98;76.29;100658.50;5227010;28;20130;-69
2022/03/29 06:10:01;;;;;;;35.80;13.27;;;10.80;99.90;;;11.01;75.80;100655.09;5226406;28;20045;-70
2022/03/29 06:12:36;;;;;;;34.97;13.50;;;10.90;99.90;;;11.06;75.38;100667.44;5227150;28;20400;-70
2022/03/29 06:15:10;;;;;;;36.53;14.73;;;10.90;99.90;;;11.08;75.14;100665.78;5227020;28;20107;-68
2022/03/29 06:17:42;;;;;;;32.55;13.57;;;10.90;99.90;;;11.12;75.05;100670.25;5226792;28;20141;-68
2022/03/29 06:20:14;;;;;;;31.67;13.68;;;11.00;99.90;;;11.17;74.81;100669.50;5226996;28;20049;-69
2022/03/29 06:22:46;;;;;;;32.70;13.45;;;11.00;99.90;;;11.18;74.54;100669.56;5226820;28;20056;-69
2022/03/29 06:25:18;;;;;;;31.55;12.52;;;11.00;99.90;;;11.20;74.66;100669.59;5226807;28;20091;-68
2022/03/29 06:27:54;;;;;;;34.17;13.23;;;11.00;99.90;;;11.21;74.67;100673.97;5226380;28;20189;-69
2022/03/29 06:30:26;;;;;;;38.03;14.45;;;11.00;99.90;;;11.23;75.01;100669.69;5226562;28;20052;-69
2022/03/29 06:32:58;;;;;;;36.15;14.02;;;11.10;99.90;;;11.26;75.09;100668.06;5226783;28;20049;-69
2022/03/29 06:35:31;;;;;;;34.33;13.00;;;11.10;99.90;;;11.31;74.91;100674.31;5226970;28;20541;-70
2022/03/29 06:38:03;;;;;;;36.10;13.70;;;11.10;99.90;;;11.36;74.67;100682.28;5226285;28;20536;-68
2022/03/29 06:40:36;;;;;;;41.22;14.27;;;11.20;99.90;;;11.42;74.76;100679.84;5226513;28;20581;-68
2022/03/29 06:43:09;;;;;;;34.25;13.70;;;11.20;99.90;;;11.47;74.55;100680.84;5226605;28;20493;-69
2022/03/29 06:45:41;;;;;;;35.15;13.23;;;11.30;99.90;;;11.50;74.56;100678.34;5226098;28;20052;-68
2022/03/29 06:48:13;;;;;;;37.60;14.38;;;11.30;99.90;;;11.54;74.65;100679.28;5225845;28;20481;-69
2022/03/29 06:50:45;;;;;;;36.00;14.07;;;11.40;99.90;;;11.55;74.68;100681.97;5226234;28;20051;-68
2022/03/29 06:53:17;;;;;;;39.00;13.27;;;11.40;99.90;;;11.56;74.99;100683.75;5226168;28;20045;-69
2022/03/29 06:55:51;;;;;;;37.50;14.45;;;11.40;99.90;;;11.58;75.41;100684.66;5226107;28;20055;-69
2022/03/29 06:58:24;;;;;;;36.50;14.07;;;11.40;99.90;;;11.61;75.55;100676.94;5225931;28;20055;-68
2022/03/29 07:00:57;;;;;;;45.58;14.25;;;11.40;99.90;;;11.63;75.78;100677.84;5226242;28;20579;-69
2022/03/29 07:03:29;;;;;;;42.28;14.38;;;11.40;99.90;;;11.67;76.00;100676.19;5225781;28;20057;-68
2022/03/29 07:06:03;;;;;;;36.65;13.75;;;11.50;99.90;;;11.69;76.21;100678.03;5226026;28;20068;-69
2022/03/29 07:11:15;;;;;;;43.78;14.52;;;11.50;99.90;;;11.76;76.22;100673.88;5234969;28;20068;-70
2022/03/29 07:11:27;;;;;;;35.55;14.32;;;11.50;99.90;;;11.84;75.94;100674.09;5245789;28;20055;-71
2022/03/29 07:14:00;;;;;;;37.75;14.07;;;11.60;99.90;;;11.87;75.80;100671.59;5246501;28;20496;-68
2022/03/29 07:16:32;;;;;;;37.58;13.95;;;11.60;99.90;;;11.95;75.69;100672.69;5246236;28;20048;-69
2022/03/29 07:19:04;;;;;;;38.83;14.30;;;11.70;99.90;;;12.04;75.13;100672.91;5246174;28;20045;-71
2022/03/29 07:21:39;;;;;;;32.20;13.18;;;11.80;99.90;;;12.16;74.95;100673.25;5246505;28;20052;-69
2022/03/29 07:24:12;;;;;;;38.75;14.40;;;11.80;99.90;;;12.26;74.27;100678.69;5246395;28;20055;-69
2022/03/29 07:26:44;;;;;;;38.38;13.77;;;12.00;99.90;;;12.37;73.41;100674.66;5246563;28;20090;-70
2022/03/29 07:29:18;;;;;;;42.72;14.65;;;12.00;99.90;;;12.47;72.85;100674.03;5245810;28;20047;-70
2022/03/29 07:31:50;;;;;;;34.42;13.65;;;12.20;99.90;;;12.54;72.34;100678.56;5246180;28;20125;-70
2022/03/29 07:34:22;;;;;;;39.22;14.80;;;12.20;99.90;;;12.56;71.05;100669.03;5245357;28;20154;-69
2022/03/29 07:36:56;;;;;;;38.08;13.95;;;12.30;99.90;;;12.53;70.62;100662.88;5238440;28;20404;-69
2022/03/29 07:39:28;;;;;;;35.72;14.65;;;12.30;99.90;;;12.58;70.31;100680.41;5241946;28;20041;-69
2022/03/29 07:42:00;;;;;;;38.63;13.77;;;12.40;99.90;;;12.74;70.08;100684.28;5224346;28;20051;-69
2022/03/29 07:44:33;;;;;;;26.40;10.02;;;12.50;99.90;;;12.80;69.70;100679.22;5225416;28;20053;-62
2022/03/29 07:47:05;;;;;;;16.30;7.45;;;12.60;99.90;;;13.30;68.56;100688.28;5239157;28;20048;-62
2022/03/29 07:49:37;;;;;;;25.73;9.63;;;12.90;99.90;;;13.98;65.28;100668.69;5239327;28;20048;-62
2022/03/29 07:52:09;;;;;;;31.88;11.48;;;13.60;99.90;;;14.48;62.04;100668.75;5241741;28;20493;-63
2022/03/29 07:54:41;;;;;;;24.33;10.20;;;14.20;98.80;;;14.89;60.44;100667.66;5243823;28;21074;-62
2022/03/29 07:57:13;;;;;;;26.42;10.90;;;14.60;97.50;;;15.29;58.54;100676.09;5245496;28;20102;-63
2022/03/29 07:59:47;;;;;;;32.65;11.32;;;15.10;96.00;;;15.63;57.29;100673.94;5245458;28;20052;-63
2022/03/29 08:02:19;;;;;;;32.40;12.05;;;15.40;94.50;;;15.85;56.55;100678.63;5245701;28;20048;-64
2022/03/29 08:04:51;;;;;;;30.30;12.52;;;15.70;93.50;;;15.98;55.50;100674.38;5246127;28;20051;-64
2022/03/29 08:07:23;;;;;;;31.48;11.48;;;15.90;92.40;;;15.93;55.51;100665.56;5245269;28;20481;-67
2022/03/29 08:09:55;;;;;;;35.00;14.25;;;15.90;92.10;;;15.79;55.85;100668.03;5245567;28;20044;-67
2022/03/29 08:12:27;;;;;;;37.70;14.13;;;15.70;92.10;;;15.71;56.26;100664.41;5246457;28;20401;-67
2022/03/29 08:15:01;;;;;;;31.52;12.75;;;15.60;92.60;;;15.67;56.67;100667.88;5239718;28;20048;-66
2022/03/29 08:17:33;;;;;;;34.67;14.00;;;15.50;93.20;;;15.72;56.90;100663.56;5224692;28;20084;-66
2022/03/29 08:20:09;;;;;;;34.45;12.98;;;15.40;93.70;;;15.82;56.75;100667.16;5224489;28;20045;-65
2022/03/29 08:22:44;;;;;;;32.80;13.27;;;15.40;93.80;;;15.90;56.71;100668.13;5224254;28;20057;-66
2022/03/29 08:25:18;;;;;;;32.55;13.40;;;15.50;94.00;;;16.01;56.37;100664.75;5231865;28;20066;-68
2022/03/29 08:27:50;;;;;;;36.17;13.98;;;15.60;93.70;;;15.99;56.03;100660.38;5236834;28;20083;-68
2022/03/29 08:30:24;;;;;;;29.60;13.30;;;15.60;93.50;;;15.88;56.33;100651.47;5245990;28;20041;-68
2022/03/29 08:32:57;;;;;;;30.92;13.43;;;15.50;93.40;;;15.73;56.76;100653.06;5247167;28;20193;-68
2022/03/29 08:35:30;;;;;;;29.38;12.00;;;15.40;93.40;;;15.63;56.84;100652.94;5250467;28;20045;-68
2022/03/29 08:38:02;;;;;;;34.38;14.02;;;15.30;93.50;;;15.58;56.90;100646.69;5249709;28;20051;-67
2022/03/29 08:40:34;;;;;;;31.63;13.32;;;15.30;93.60;;;15.50;57.09;100649.25;5249924;28;20049;-67
2022/03/29 08:43:08;;;;;;;32.88;13.95;;;15.20;93.90;;;15.44;57.42;100642.16;5250316;28;20398;-68
2022/03/29 08:45:47;;;;;;;31.65;13.07;;;15.10;94.30;;;15.37;57.93;100626.31;5250187;28;20478;-67
2022/03/29 08:48:23;;;;;;;31.77;14.38;;;15.00;94.60;;;15.22;57.26;100621.75;5249867;28;20079;-69
2022/03/29 08:50:59;;;;;;;29.23;12.35;;;14.90;94.10;;;15.18;57.59;100619.94;5249940;28;20040;-67
2022/03/29 08:53:31;;;;;;;36.97;15.23;;;14.90;94.20;;;15.22;57.81;100629.63;5247576;28;20048;-67
2022/03/29 08:56:03;;;;;;;31.42;13.52;;;14.90;94.30;;;15.27;57.88;100624.44;5229391;28;20417;-68
2022/03/29 08:58:35;;;;;;;32.78;13.82;;;15.00;94.40;;;15.26;57.58;100623.56;5229061;28;20045;-69
2022/03/29 09:01:08;;;;;;;30.17;12.00;;;15.00;94.30;;;15.10;56.86;100617.22;5233522;28;20490;-67
2022/03/29 09:03:40;;;;;;;28.92;12.85;;;14.90;93.20;;;15.03;57.01;100614.47;5228325;28;20059;-68
2022/03/29 09:06:12;;;;;;;32.10;13.30;;;14.90;93.30;;;15.06;56.90;100609.25;5226735;28;20053;-70
2022/03/29 09:08:46;;;;;;;34.15;13.35;;;14.90;93.30;;;15.09;56.68;100619.81;5228806;28;20052;-71
2022/03/29 09:11:20;;;;;;;33.63;13.55;;;14.90;93.30;;;15.16;56.76;100616.41;5228928;28;20406;-69
2022/03/29 09:14:03;;;;;;;28.33;12.13;;;14.90;93.30;;;15.12;55.99;100614.59;5229039;28;20084;-70
2022/03/29 09:16:41;;;;;;;30.65;12.30;;;14.90;92.60;;;15.24;56.38;100609.50;5228901;28;20052;-68
2022/03/29 09:19:13;;;;;;;34.67;13.73;;;14.90;93.20;;;15.59;56.41;100606.47;5228416;28;20391;-69
2022/03/29 09:21:46;;;;;;;33.92;14.27;;;15.20;93.80;;;15.90;55.83;100602.41;5228673;28;20387;-69
2022/03/29 09:24:19;;;;;;;35.50;14.90;;;15.40;93.20;;;16.17;55.61;100604.41;5228651;28;20053;-66
2022/03/29 09:26:54;;;;;;;33.45;13.63;;;15.60;93.30;;;16.38;54.93;100599.38;5228396;28;20051;-66
2022/03/29 09:29:27;;;;;;;34.55;13.85;;;15.80;93.00;;;16.48;54.68;100603.81;5228358;28;20053;-69
2022/03/29 09:32:07;;;;;;;37.67;14.25;;;15.80;92.70;;;16.59;54.29;100601.28;5228503;28;20494;-67
2022/03/29 09:34:39;;;;;;;32.42;15.00;;;15.90;92.40;;;16.58;53.63;100598.63;5228424;28;20060;-68
2022/03/29 09:37:11;;;;;;;38.15;15.05;;;16.00;91.70;;;16.75;54.20;100604.91;5228184;28;20055;-69
2022/03/29 09:39:44;;;;;;;32.65;13.63;;;16.10;92.20;;;16.87;53.19;100590.97;5228313;28;20060;-68
2022/03/29 09:42:18;;;;;;;29.50;13.00;;;16.20;91.50;;;17.10;53.20;100589.34;5228398;28;20049;-66
2022/03/29 09:44:53;;;;;;;33.50;14.13;;;16.30;91.60;;;17.60;52.40;100589.53;5226975;28;20460;-65
2022/03/29 09:47:29;;;;;;;32.28;14.10;;;16.70;91.40;;;17.98;50.02;100580.84;5228044;28;20049;-66
2022/03/29 09:50:06;;;;;;;33.25;13.52;;;17.10;89.40;;;18.08;48.77;100579.13;5228374;28;20497;-70
2022/03/29 09:52:39;;;;;;;23.52;11.05;;;17.20;86.60;;;18.13;48.37;100572.09;5228286;28;20482;-74
2022/03/29 09:55:15;;;;;;;24.92;9.32;;;17.30;84.00;;;18.17;46.26;100568.56;5228323;28;20071;-70
2022/03/29 09:57:49;;;;;;;23.80;10.48;;;17.40;78.90;;;18.31;45.50;100558.00;5227663;28;20445;-70
2022/03/29 10:00:36;;;;;;;25.63;10.73;;;17.50;77.20;;;18.52;45.27;100554.44;5227396;28;20045;-71
2022/03/29 10:03:11;;;;;;;28.88;9.82;;;17.60;76.80;;;18.77;45.07;100547.41;5228085;28;20052;-71
2022/03/29 10:05:47;;;;;;;25.08;10.35;;;17.80;76.30;;;18.80;43.47;100542.13;5227923;28;20502;-72
2022/03/29 10:11:17;;;;;;;20.00;9.50;;;18.10;72.30;;;18.85;42.62;100537.72;5227619;28;20516;-72
2022/03/29 10:13:50;;;;;;;19.15;8.70;;;18.20;70.20;;;18.86;41.47;100543.00;5227634;28;20060;-73
2022/03/29 10:16:22;;;;;;;19.70;9.38;;;18.20;68.40;;;18.85;41.17;100537.72;5227461;28;20071;-72
2022/03/29 10:18:56;;;;;;;21.27;9.65;;;18.20;67.20;;;18.83;41.55;100534.19;5229434;28;20062;-73
2022/03/29 10:21:29;;;;;;;18.27;8.43;;;18.20;67.30;;;18.77;41.67;100529.78;5226439;28;20045;-68
2022/03/29 10:24:01;;;;;;;18.83;9.07;;;18.10;67.40;;;18.76;42.27;100513.97;5229961;28;20045;-69
2022/03/29 10:26:35;;;;;;;19.02;9.18;;;18.10;68.00;;;18.76;42.37;100511.31;5226410;28;20049;-69
2022/03/29 10:29:08;;;;;;;21.60;9.75;;;18.10;68.30;;;18.72;42.71;100514.88;5226293;28;20044;-70
2022/03/29 10:31:51;;;;;;;19.25;9.30;;;18.00;68.60;;;18.64;42.66;100507.78;5228807;28;20049;-67